Station Historical Data
Daily Summary for January 8, 2012 Units:  English    Metric   Both
« Previous Day
Next Day »
Daily Weekly Monthly Yearly Custom
  High: Low: Average:
Temperature: 51.4 °F 44.1 °F 47.4 °F
Dew Point: 49.9 °F 38.3 °F 44.3 °F
Humidity: 96% 72% 89%
Wind Speed: 10.0mph 0.0mph 2.9mph
Wind Gust: 11.0mph - -
Wind- - ENE
Pressure: 30.18 in 30.09 in -
Precipitation: 0.20 in    
Historical Graphs
 
 
Tabular Data for January 8, 2012
Time Temperature Dew Point Pressure Wind Wind Speed Wind Gust Humidity Rainfall Rate (Hourly) Conditions
00:00 50.6 °F 44.3 °F 30.09 in NNE 6.0 mph 8.0 mph 79% 0.00 in
00:01 50.6 °F 44.0 °F 30.10 in NE 5.0 mph 8.0 mph 78% 0.00 in
00:06 50.5 °F 43.6 °F 30.10 in NNE 5.0 mph 6.0 mph 77% 0.00 in
00:11 50.4 °F 43.1 °F 30.10 in NE 5.0 mph 7.0 mph 76% 0.00 in
00:16 50.3 °F 42.7 °F 30.10 in NE 3.0 mph 6.0 mph 75% 0.00 in
00:21 50.3 °F 42.3 °F 30.10 in NNE 3.0 mph 6.0 mph 74% 0.00 in
00:26 50.3 °F 42.0 °F 30.10 in NNE 3.0 mph 6.0 mph 73% 0.00 in
00:31 50.2 °F 41.9 °F 30.10 in NNE 3.0 mph 6.0 mph 73% 0.00 in
00:36 50.2 °F 41.5 °F 30.10 in NNE 2.0 mph 5.0 mph 72% 0.00 in
00:41 50.2 °F 41.5 °F 30.11 in Calm   2.0 mph 72% 0.00 in
00:46 50.1 °F 41.4 °F 30.11 in NNW 1.0 mph 3.0 mph 72% 0.00 in
00:51 49.9 °F 42.0 °F 30.11 in NNE 3.0 mph 3.0 mph 74% 0.16 in
00:56 49.2 °F 42.3 °F 30.10 in NE 2.0 mph 4.0 mph 77% 0.18 in
01:01 48.4 °F 43.2 °F 30.11 in NNW 3.0 mph 6.0 mph 82% 0.11 in
01:07 47.2 °F 42.6 °F 30.11 in NNE 2.0 mph 5.0 mph 84% 0.08 in
01:12 46.4 °F 41.8 °F 30.11 in NNE 5.0 mph 6.0 mph 84% 0.05 in
01:17 46.0 °F 41.4 °F 30.11 in NNE 5.0 mph 7.0 mph 84% 0.00 in
01:22 45.8 °F 41.2 °F 30.11 in NNE 5.0 mph 9.0 mph 84% 0.00 in
01:27 45.9 °F 40.7 °F 30.11 in NE 5.0 mph 9.0 mph 82% 0.00 in
01:32 46.0 °F 40.5 °F 30.11 in NE 6.0 mph 8.0 mph 81% 0.00 in
01:37 46.1 °F 40.9 °F 30.11 in NE 5.0 mph 6.0 mph 82% 0.00 in
01:42 46.1 °F 40.9 °F 30.11 in NE 6.0 mph 6.0 mph 82% 0.00 in
01:47 46.1 °F 40.9 °F 30.10 in East 3.0 mph 7.0 mph 82% 0.00 in
01:52 46.1 °F 40.9 °F 30.10 in NNE 4.0 mph 8.0 mph 82% 0.00 in
01:57 46.0 °F 41.1 °F 30.10 in NE 4.0 mph 6.0 mph 83% 0.00 in
02:02 46.0 °F 41.1 °F 30.10 in NNE 4.0 mph 7.0 mph 83% 0.00 in
02:07 45.9 °F 41.0 °F 30.10 in NE 2.0 mph 4.0 mph 83% 0.00 in
02:12 46.0 °F 41.4 °F 30.11 in NE 2.0 mph 3.0 mph 84% 0.00 in
02:17 46.0 °F 41.8 °F 30.11 in NNW 2.0 mph 3.0 mph 85% 0.00 in
02:22 45.9 °F 42.3 °F 30.12 in NW 1.0 mph 3.0 mph 87% 0.00 in
02:27 45.7 °F 42.4 °F 30.12 in NW 1.0 mph 2.0 mph 88% 0.00 in
02:32 45.6 °F 42.3 °F 30.12 in Calm   1.0 mph 88% 0.00 in
02:37 45.6 °F 42.3 °F 30.12 in NNE 2.0 mph 3.0 mph 88% 0.00 in
02:42 45.7 °F 42.1 °F 30.12 in NE 2.0 mph 3.0 mph 87% 0.00 in
02:47 45.8 °F 41.2 °F 30.12 in NE 4.0 mph 7.0 mph 84% 0.00 in
02:52 45.9 °F 40.7 °F 30.12 in NNE 5.0 mph 8.0 mph 82% 0.00 in
02:58 45.8 °F 40.3 °F 30.12 in North 2.0 mph 10.0 mph 81% 0.00 in
03:03 45.6 °F 40.7 °F 30.12 in NE 3.0 mph 6.0 mph 83% 0.00 in
03:08 45.2 °F 40.7 °F 30.12 in NE 10.0 mph 11.0 mph 84% 0.00 in
03:13 45.0 °F 40.5 °F 30.12 in NE 8.0 mph 8.0 mph 84% 0.00 in
03:18 44.9 °F 40.4 °F 30.12 in NNE 3.0 mph 7.0 mph 84% 0.00 in
03:23 44.8 °F 40.3 °F 30.12 in NE 3.0 mph 5.0 mph 84% 0.00 in
03:28 44.7 °F 40.5 °F 30.11 in NE 6.0 mph 6.0 mph 85% 0.00 in
03:33 44.6 °F 40.1 °F 30.11 in NNE 5.0 mph 9.0 mph 84% 0.00 in
03:38 44.6 °F 40.1 °F 30.11 in NNE 2.0 mph 8.0 mph 84% 0.00 in
03:43 44.5 °F 40.6 °F 30.12 in NNW 2.0 mph 5.0 mph 86% 0.00 in
03:48 44.4 °F 40.5 °F 30.11 in NE 2.0 mph 5.0 mph 86% 0.00 in
03:53 44.4 °F 40.5 °F 30.11 in NNE 4.0 mph 5.0 mph 86% 0.00 in
03:58 44.4 °F 40.5 °F 30.11 in NNE 3.0 mph 6.0 mph 86% 0.00 in
04:03 44.4 °F 40.5 °F 30.11 in NNE 4.0 mph 6.0 mph 86% 0.00 in
04:09 44.3 °F 40.4 °F 30.11 in NNE 2.0 mph 7.0 mph 86% 0.00 in
04:14 44.2 °F 40.3 °F 30.11 in NE 6.0 mph 8.0 mph 86% 0.00 in
04:19 44.1 °F 40.2 °F 30.10 in NNE 5.0 mph 8.0 mph 86% 0.00 in
04:24 44.1 °F 40.2 °F 30.10 in NE 4.0 mph 6.0 mph 86% 0.00 in
04:29 44.1 °F 39.9 °F 30.10 in ENE 7.0 mph 9.0 mph 85% 0.00 in
04:34 44.2 °F 39.7 °F 30.10 in NE 5.0 mph 8.0 mph 84% 0.00 in
04:39 44.4 °F 39.6 °F 30.10 in NE 4.0 mph 9.0 mph 83% 0.00 in
04:40 44.4 °F 39.9 °F 30.10 in NNE 5.0 mph 8.0 mph 84% 0.00 in
04:45 44.5 °F 39.7 °F 30.10 in NE 3.0 mph 8.0 mph 83% 0.00 in
04:50 44.6 °F 39.5 °F 30.10 in NNE 4.0 mph 8.0 mph 82% 0.00 in
04:55 44.6 °F 39.5 °F 30.10 in NE 7.0 mph 10.0 mph 82% 0.00 in
05:00 44.6 °F 39.1 °F 30.10 in NE 3.0 mph 10.0 mph 81% 0.00 in
05:05 44.7 °F 38.9 °F 30.10 in NE 7.0 mph 8.0 mph 80% 0.00 in
05:10 44.8 °F 39.0 °F 30.10 in NE 4.0 mph 10.0 mph 80% 0.00 in
05:15 44.9 °F 38.8 °F 30.10 in NE 8.0 mph 11.0 mph 79% 0.00 in
05:20 44.9 °F 38.8 °F 30.10 in NNE 4.0 mph 10.0 mph 79% 0.00 in
05:25 44.9 °F 38.8 °F 30.10 in NNE 6.0 mph 8.0 mph 79% 0.00 in
05:30 45.0 °F 38.6 °F 30.10 in NNE 7.0 mph 10.0 mph 78% 0.00 in
05:35 45.1 °F 38.7 °F 30.10 in NE 4.0 mph 7.0 mph 78% 0.00 in
05:40 45.1 °F 38.3 °F 30.10 in ENE 3.0 mph 6.0 mph 77% 0.00 in
05:45 45.2 °F 38.8 °F 30.11 in ENE 5.0 mph 5.0 mph 78% 0.00 in
05:46 45.2 °F 38.4 °F 30.11 in NE 2.0 mph 6.0 mph 77% 0.00 in
05:51 45.2 °F 38.4 °F 30.11 in NE 6.0 mph 7.0 mph 77% 0.00 in
05:56 45.3 °F 38.5 °F 30.11 in North 4.0 mph 6.0 mph 77% 0.00 in
06:01 45.3 °F 38.5 °F 30.11 in NE 3.0 mph 5.0 mph 77% 0.00 in
06:06 45.3 °F 38.5 °F 30.11 in NE 3.0 mph 6.0 mph 77% 0.00 in
06:11 45.4 °F 38.3 °F 30.11 in NE 4.0 mph 7.0 mph 76% 0.00 in
06:16 45.4 °F 38.3 °F 30.11 in ENE 2.0 mph 6.0 mph 76% 0.00 in
06:22 45.4 °F 38.6 °F 30.11 in NE 3.0 mph 4.0 mph 77% 0.00 in
06:27 45.4 °F 38.6 °F 30.11 in ESE 1.0 mph 3.0 mph 77% 0.00 in
06:32 45.4 °F 38.6 °F 30.11 in NE 2.0 mph 4.0 mph 77% 0.00 in
06:37 45.4 °F 38.6 °F 30.11 in ENE 1.0 mph 5.0 mph 77% 0.00 in
06:42 45.5 °F 38.7 °F 30.11 in ENE 6.0 mph 7.0 mph 77% 0.00 in
06:47 45.5 °F 38.7 °F 30.11 in NE 3.0 mph 4.0 mph 77% 0.00 in
06:52 45.5 °F 39.0 °F 30.11 in NE 2.0 mph 7.0 mph 78% 0.00 in
06:57 45.5 °F 38.7 °F 30.11 in NE 3.0 mph 6.0 mph 77% 0.00 in
07:02 45.4 °F 39.0 °F 30.11 in NE 5.0 mph 6.0 mph 78% 0.00 in
07:07 45.3 °F 38.9 °F 30.11 in NNE 4.0 mph 4.0 mph 78% 0.00 in
07:12 45.3 °F 39.2 °F 30.11 in NE 4.0 mph 5.0 mph 79% 0.00 in
07:17 45.3 °F 39.2 °F 30.11 in NE 2.0 mph 6.0 mph 79% 0.00 in
07:22 45.4 °F 39.3 °F 30.11 in ENE 2.0 mph 6.0 mph 79% 0.00 in
07:27 45.4 °F 39.3 °F 30.11 in NE 3.0 mph 4.0 mph 79% 0.00 in
07:32 45.4 °F 39.3 °F 30.11 in NE 4.0 mph 5.0 mph 79% 0.00 in
07:37 45.4 °F 39.6 °F 30.12 in ENE 1.0 mph 4.0 mph 80% 0.00 in
07:42 45.4 °F 39.6 °F 30.12 in NE 3.0 mph 5.0 mph 80% 0.00 in
07:47 45.5 °F 39.7 °F 30.12 in NNE 1.0 mph 4.0 mph 80% 0.00 in
07:52 45.6 °F 39.8 °F 30.12 in NNW 2.0 mph 3.0 mph 80% 0.00 in
07:57 45.6 °F 40.1 °F 30.12 in NNE 1.0 mph 2.0 mph 81% 0.00 in
08:02 45.6 °F 39.8 °F 30.13 in NNE 1.0 mph 3.0 mph 80% 0.00 in
08:07 45.7 °F 40.2 °F 30.13 in North 1.0 mph 4.0 mph 81% 0.00 in
08:12 45.7 °F 40.2 °F 30.13 in NNE 2.0 mph 3.0 mph 81% 0.00 in
08:17 45.6 °F 40.4 °F 30.13 in NE 2.0 mph 3.0 mph 82% 0.00 in
08:22 45.6 °F 40.4 °F 30.13 in NE 2.0 mph 4.0 mph 82% 0.00 in
08:27 45.6 °F 40.7 °F 30.13 in NE 2.0 mph 2.0 mph 83% 0.00 in
08:32 45.7 °F 40.8 °F 30.13 in NE 3.0 mph 4.0 mph 83% 0.00 in
08:37 45.7 °F 40.8 °F 30.14 in NNE 4.0 mph 4.0 mph 83% 0.00 in
08:42 45.7 °F 40.8 °F 30.14 in NNE 3.0 mph 3.0 mph 83% 0.00 in
08:47 45.6 °F 40.7 °F 30.14 in NE 3.0 mph 3.0 mph 83% 0.00 in
08:52 45.5 °F 41.0 °F 30.14 in ENE 1.0 mph 4.0 mph 84% 0.00 in
08:57 45.4 °F 40.9 °F 30.14 in ENE 2.0 mph 4.0 mph 84% 0.00 in
09:02 45.3 °F 41.4 °F 30.14 in East 3.0 mph 4.0 mph 86% 0.00 in
09:07 45.2 °F 41.6 °F 30.15 in NE 1.0 mph 3.0 mph 87% 0.00 in
09:12 45.1 °F 41.8 °F 30.15 in NE 3.0 mph 3.0 mph 88% 0.07 in
09:17 45.0 °F 42.0 °F 30.15 in East 2.0 mph 3.0 mph 89% 0.10 in
09:22 44.9 °F 41.9 °F 30.15 in East 3.0 mph 3.0 mph 89% 0.10 in
09:27 44.8 °F 42.0 °F 30.15 in NE 3.0 mph 5.0 mph 90% 0.14 in
09:32 44.7 °F 42.2 °F 30.15 in ENE 2.0 mph 4.0 mph 91% 0.13 in
09:38 44.6 °F 42.1 °F 30.15 in NE 2.0 mph 4.0 mph 91% 0.14 in
09:43 44.5 °F 42.3 °F 30.16 in East 2.0 mph 4.0 mph 92% 0.12 in
09:48 44.5 °F 42.3 °F 30.16 in ENE 4.0 mph 6.0 mph 92% 0.19 in
09:53 44.5 °F 42.6 °F 30.16 in ENE 4.0 mph 6.0 mph 93% 0.16 in
09:58 44.5 °F 42.6 °F 30.16 in East 6.0 mph 6.0 mph 93% 0.12 in
10:03 44.5 °F 42.6 °F 30.16 in ESE 5.0 mph 6.0 mph 93% 0.11 in
10:08 44.7 °F 43.1 °F 30.16 in East 3.0 mph 5.0 mph 94% 0.08 in
10:13 44.8 °F 43.2 °F 30.17 in NE 3.0 mph 9.0 mph 94% 0.08 in
10:18 44.8 °F 43.2 °F 30.17 in NNE 3.0 mph 5.0 mph 94% 0.06 in
10:23 44.8 °F 43.2 °F 30.17 in NNE 4.0 mph 6.0 mph 94% 0.06 in
10:28 44.8 °F 43.2 °F 30.17 in NE 2.0 mph 4.0 mph 94% 0.07 in
10:33 44.7 °F 43.1 °F 30.17 in NNE 3.0 mph 4.0 mph 94% 0.09 in
10:38 44.6 °F 43.0 °F 30.17 in NNE 2.0 mph 4.0 mph 94% 0.07 in
10:43 44.6 °F 43.3 °F 30.18 in NNE 4.0 mph 4.0 mph 95% 0.06 in
10:48 44.6 °F 43.3 °F 30.18 in NE 1.0 mph 2.0 mph 95% 0.06 in
10:53 44.7 °F 43.4 °F 30.18 in NNE 1.0 mph 3.0 mph 95% 0.05 in
10:58 44.9 °F 43.6 °F 30.18 in NE 3.0 mph 3.0 mph 95% 0.04 in
11:03 45.0 °F 43.7 °F 30.18 in NNE 1.0 mph 3.0 mph 95% 0.04 in
11:08 45.2 °F 43.9 °F 30.18 in NE 3.0 mph 3.0 mph 95% 0.04 in
11:13 45.3 °F 44.0 °F 30.17 in NE 3.0 mph 3.0 mph 95% 0.00 in
11:18 45.6 °F 44.2 °F 30.17 in NE 4.0 mph 7.0 mph 95% 0.00 in
11:23 45.8 °F 44.5 °F 30.17 in NNE 4.0 mph 6.0 mph 95% 0.00 in
11:28 46.1 °F 45.0 °F 30.16 in NE 1.0 mph 5.0 mph 96% 0.00 in
11:33 46.5 °F 45.4 °F 30.16 in ENE 3.0 mph 6.0 mph 96% 0.00 in
11:38 46.7 °F 45.6 °F 30.16 in East 3.0 mph 5.0 mph 96% 0.00 in
11:43 47.0 °F 45.9 °F 30.15 in ENE 6.0 mph 9.0 mph 96% 0.00 in
11:48 47.2 °F 46.1 °F 30.15 in ENE 4.0 mph 7.0 mph 96% 0.00 in
11:53 47.5 °F 46.4 °F 30.15 in ENE 5.0 mph 6.0 mph 96% 0.00 in
11:58 47.7 °F 46.6 °F 30.14 in ESE 4.0 mph 6.0 mph 96% 0.00 in
12:03 48.1 °F 47.0 °F 30.14 in East 1.0 mph 4.0 mph 96% 0.00 in
12:08 48.4 °F 47.3 °F 30.15 in NW 3.0 mph 4.0 mph 96% 0.00 in
12:13 48.3 °F 47.2 °F 30.16 in WNW 4.0 mph 6.0 mph 96% 0.00 in
12:18 48.0 °F 46.6 °F 30.16 in WNW 5.0 mph 7.0 mph 95% 0.00 in
12:23 47.4 °F 46.0 °F 30.16 in WNW 4.0 mph 7.0 mph 95% 0.00 in
12:28 47.2 °F 45.8 °F 30.16 in NW 3.0 mph 5.0 mph 95% 0.00 in
12:33 46.9 °F 45.5 °F 30.15 in NNW 3.0 mph 8.0 mph 95% 0.00 in
12:38 46.8 °F 45.7 °F 30.15 in North 4.0 mph 6.0 mph 96% 0.00 in
12:43 46.6 °F 45.2 °F 30.15 in North 4.0 mph 8.0 mph 95% 0.00 in
12:48 46.7 °F 45.6 °F 30.15 in NW 9.0 mph 9.0 mph 96% 0.00 in
12:53 46.5 °F 45.2 °F 30.16 in NNW 3.0 mph 7.0 mph 95% 0.00 in
12:59 46.4 °F 45.0 °F 30.15 in NNE 6.0 mph 10.0 mph 95% 0.00 in
13:04 46.6 °F 45.2 °F 30.15 in North 5.0 mph 8.0 mph 95% 0.00 in
13:09 46.6 °F 45.2 °F 30.15 in NNE 5.0 mph 7.0 mph 95% 0.00 in
13:14 46.8 °F 45.2 °F 30.15 in NNE 5.0 mph 7.0 mph 94% 0.00 in
13:19 46.9 °F 45.3 °F 30.14 in NE 5.0 mph 7.0 mph 94% 0.00 in
13:24 47.2 °F 45.6 °F 30.14 in NNE 5.0 mph 6.0 mph 94% 0.00 in
13:29 47.1 °F 45.2 °F 30.14 in NE 3.0 mph 8.0 mph 93% 0.00 in
13:34 47.3 °F 45.4 °F 30.14 in NNE 6.0 mph 7.0 mph 93% 0.00 in
13:39 47.4 °F 45.5 °F 30.14 in NE 3.0 mph 5.0 mph 93% 0.00 in
13:44 47.4 °F 45.5 °F 30.14 in NE 4.0 mph 5.0 mph 93% 0.00 in
13:49 47.5 °F 45.6 °F 30.14 in NE 4.0 mph 6.0 mph 93% 0.00 in
13:54 47.6 °F 46.0 °F 30.14 in NE 4.0 mph 6.0 mph 94% 0.00 in
13:59 47.8 °F 46.2 °F 30.14 in NNE 4.0 mph 6.0 mph 94% 0.00 in
14:04 48.1 °F 46.5 °F 30.13 in NNE 2.0 mph 6.0 mph 94% 0.00 in
14:09 48.3 °F 46.7 °F 30.13 in NE 4.0 mph 5.0 mph 94% 0.00 in
14:14 48.4 °F 46.8 °F 30.13 in NE 2.0 mph 5.0 mph 94% 0.00 in
14:19 48.6 °F 47.0 °F 30.13 in NE 3.0 mph 3.0 mph 94% 0.00 in
14:24 48.8 °F 47.2 °F 30.13 in NNE 3.0 mph 4.0 mph 94% 0.00 in
14:29 49.0 °F 47.3 °F 30.13 in NNE 3.0 mph 5.0 mph 94% 0.00 in
14:34 49.3 °F 47.7 °F 30.13 in North 4.0 mph 5.0 mph 94% 0.00 in
14:39 49.4 °F 47.8 °F 30.13 in NE 5.0 mph 5.0 mph 94% 0.00 in
14:44 49.5 °F 47.8 °F 30.13 in NNE 4.0 mph 6.0 mph 94% 0.00 in
14:49 49.7 °F 48.0 °F 30.13 in NNE 4.0 mph 5.0 mph 94% 0.00 in
14:54 49.8 °F 48.2 °F 30.13 in NNE 4.0 mph 5.0 mph 94% 0.00 in
14:59 49.9 °F 48.2 °F 30.13 in NE 4.0 mph 7.0 mph 94% 0.00 in
15:04 50.3 °F 48.6 °F 30.13 in NNE 2.0 mph 4.0 mph 94% 0.00 in
15:09 50.5 °F 48.8 °F 30.13 in North 3.0 mph 3.0 mph 94% 0.00 in
15:14 50.7 °F 49.0 °F 30.13 in North 2.0 mph 4.0 mph 94% 0.00 in
15:19 50.9 °F 49.2 °F 30.13 in NE 4.0 mph 4.0 mph 94% 0.00 in
15:24 50.8 °F 48.8 °F 30.13 in NE 3.0 mph 5.0 mph 93% 0.00 in
15:29 50.8 °F 48.8 °F 30.13 in NE 4.0 mph 4.0 mph 93% 0.00 in
15:34 50.8 °F 48.8 °F 30.13 in NNE 3.0 mph 4.0 mph 93% 0.00 in
15:39 50.9 °F 49.2 °F 30.13 in NNE 2.0 mph 4.0 mph 94% 0.00 in
15:44 51.1 °F 49.4 °F 30.13 in NNE 2.0 mph 3.0 mph 94% 0.00 in
15:50 51.2 °F 49.5 °F 30.13 in NNE 3.0 mph 3.0 mph 94% 0.00 in
15:55 51.4 °F 49.7 °F 30.13 in NNE 3.0 mph 4.0 mph 94% 0.00 in
16:00 51.3 °F 49.6 °F 30.13 in North 1.0 mph 3.0 mph 94% 0.00 in
16:05 51.3 °F 49.6 °F 30.13 in NNE 4.0 mph 4.0 mph 94% 0.00 in
16:10 51.3 °F 49.6 °F 30.14 in NNE 1.0 mph 3.0 mph 94% 0.00 in
16:15 51.3 °F 49.6 °F 30.14 in NE 1.0 mph 2.0 mph 94% 0.00 in
16:20 51.3 °F 49.6 °F 30.14 in NE 1.0 mph 1.0 mph 94% 0.00 in
16:25 51.3 °F 49.6 °F 30.14 in NE 2.0 mph 2.0 mph 94% 0.00 in
16:30 51.2 °F 49.5 °F 30.14 in NE 1.0 mph 2.0 mph 94% 0.00 in
16:35 51.2 °F 49.5 °F 30.14 in NE 1.0 mph 1.0 mph 94% 0.00 in
16:40 51.2 °F 49.5 °F 30.15 in Calm   1.0 mph 94% 0.00 in
16:45 51.2 °F 49.5 °F 30.15 in Calm     94% 0.00 in
16:50 51.3 °F 49.6 °F 30.15 in Calm   1.0 mph 94% 0.00 in
16:55 51.3 °F 49.6 °F 30.15 in NE 3.0 mph 3.0 mph 94% 0.00 in
17:00 51.3 °F 49.6 °F 30.15 in NNE 2.0 mph 3.0 mph 94% 0.00 in
17:05 51.3 °F 49.6 °F 30.15 in NNE 2.0 mph 3.0 mph 94% 0.00 in
17:10 51.3 °F 49.6 °F 30.15 in NNE 2.0 mph 4.0 mph 94% 0.00 in
17:15 51.3 °F 49.9 °F 30.15 in NE 1.0 mph 3.0 mph 95% 0.00 in
17:20 51.2 °F 49.8 °F 30.14 in NE 2.0 mph 4.0 mph 95% 0.00 in
17:25 51.2 °F 49.8 °F 30.14 in ENE 3.0 mph 3.0 mph 95% 0.00 in
17:30 51.1 °F 49.7 °F 30.14 in NE 2.0 mph 3.0 mph 95% 0.00 in
17:35 51.0 °F 49.6 °F 30.15 in ENE 3.0 mph 4.0 mph 95% 0.00 in
17:40 50.9 °F 49.5 °F 30.15 in East 1.0 mph 3.0 mph 95% 0.00 in
17:45 50.9 °F 49.5 °F 30.15 in NE 1.0 mph 3.0 mph 95% 0.00 in
17:50 50.8 °F 49.4 °F 30.14 in NNE 3.0 mph 5.0 mph 95% 0.00 in
17:55 50.7 °F 49.3 °F 30.14 in NE 4.0 mph 5.0 mph 95% 0.00 in
18:00 50.6 °F 49.2 °F 30.14 in NE 3.0 mph 5.0 mph 95% 0.00 in
18:05 50.5 °F 49.1 °F 30.15 in NE 4.0 mph 6.0 mph 95% 0.00 in
18:10 50.4 °F 49.0 °F 30.15 in NE 4.0 mph 5.0 mph 95% 0.00 in
18:15 50.3 °F 48.9 °F 30.15 in NE 2.0 mph 5.0 mph 95% 0.00 in
18:20 50.1 °F 48.7 °F 30.15 in ENE 3.0 mph 5.0 mph 95% 0.00 in
18:26 49.9 °F 48.5 °F 30.16 in ENE 5.0 mph 7.0 mph 95% 0.00 in
18:31 49.6 °F 48.0 °F 30.16 in ENE 1.0 mph 4.0 mph 94% 0.00 in
18:36 49.5 °F 47.8 °F 30.17 in NNE 2.0 mph 3.0 mph 94% 0.00 in
18:41 49.5 °F 47.8 °F 30.17 in NNE 2.0 mph 2.0 mph 94% 0.00 in
18:46 49.4 °F 47.8 °F 30.17 in NE 1.0 mph 3.0 mph 94% 0.00 in
18:51 49.4 °F 47.8 °F 30.17 in ENE 2.0 mph 2.0 mph 94% 0.00 in
18:56 49.3 °F 47.7 °F 30.17 in East 1.0 mph 2.0 mph 94% 0.00 in
19:01 49.3 °F 47.7 °F 30.17 in ESE 2.0 mph 2.0 mph 94% 0.00 in
19:06 49.3 °F 47.7 °F 30.17 in East 1.0 mph 1.0 mph 94% 0.00 in
19:11 49.2 °F 47.5 °F 30.17 in ESE 1.0 mph 2.0 mph 94% 0.00 in
19:16 49.1 °F 47.5 °F 30.17 in ESE 2.0 mph 2.0 mph 94% 0.00 in
19:21 49.0 °F 47.3 °F 30.17 in ESE 1.0 mph 2.0 mph 94% 0.00 in
19:26 48.9 °F 47.2 °F 30.17 in East 1.0 mph 2.0 mph 94% 0.00 in
19:31 48.9 °F 47.2 °F 30.17 in ESE 2.0 mph 2.0 mph 94% 0.00 in
19:36 48.9 °F 47.2 °F 30.17 in ESE 1.0 mph 2.0 mph 94% 0.00 in
19:41 48.8 °F 47.2 °F 30.17 in Calm   1.0 mph 94% 0.00 in
19:46 48.8 °F 46.9 °F 30.16 in NE 2.0 mph 3.0 mph 93% 0.00 in
19:51 48.9 °F 47.0 °F 30.16 in ENE 2.0 mph 3.0 mph 93% 0.00 in
19:56 48.9 °F 47.0 °F 30.16 in East 1.0 mph 2.0 mph 93% 0.00 in
20:01 48.9 °F 47.0 °F 30.16 in East 1.0 mph 3.0 mph 93% 0.00 in
20:06 48.9 °F 47.0 °F 30.16 in East 1.0 mph 3.0 mph 93% 0.00 in
20:11 48.9 °F 47.0 °F 30.17 in ENE 3.0 mph 4.0 mph 93% 0.00 in
20:16 48.9 °F 47.0 °F 30.16 in East 4.0 mph 4.0 mph 93% 0.00 in
20:21 48.9 °F 47.0 °F 30.16 in NE 2.0 mph 3.0 mph 93% 0.00 in
20:26 48.8 °F 46.9 °F 30.16 in ENE 3.0 mph 5.0 mph 93% 0.00 in
20:31 48.8 °F 46.6 °F 30.16 in North 3.0 mph 5.0 mph 92% 0.00 in
20:36 48.8 °F 46.6 °F 30.16 in NE 4.0 mph 8.0 mph 92% 0.00 in
20:41 48.8 °F 46.6 °F 30.16 in NNE 3.0 mph 6.0 mph 92% 0.00 in
20:46 48.8 °F 46.6 °F 30.16 in NE 3.0 mph 6.0 mph 92% 0.00 in
20:51 48.8 °F 46.6 °F 30.16 in ENE 4.0 mph 6.0 mph 92% 0.00 in
20:56 48.7 °F 46.5 °F 30.16 in NE 4.0 mph 6.0 mph 92% 0.00 in
21:02 48.7 °F 46.5 °F 30.16 in NE 6.0 mph 6.0 mph 92% 0.00 in
21:07 48.7 °F 46.8 °F 30.16 in NE 3.0 mph 6.0 mph 93% 0.00 in
21:12 48.7 °F 46.8 °F 30.15 in NE 3.0 mph 7.0 mph 93% 0.00 in
21:17 48.6 °F 46.7 °F 30.15 in NNE 6.0 mph 8.0 mph 93% 0.00 in
21:22 48.6 °F 46.7 °F 30.15 in NE 6.0 mph 7.0 mph 93% 0.00 in
21:27 48.5 °F 46.6 °F 30.15 in NNE 3.0 mph 6.0 mph 93% 0.00 in
21:32 48.5 °F 46.6 °F 30.16 in NE 2.0 mph 6.0 mph 93% 0.00 in
21:37 48.5 °F 46.6 °F 30.15 in NE 4.0 mph 4.0 mph 93% 0.00 in
21:42 48.5 °F 46.6 °F 30.15 in NE 3.0 mph 3.0 mph 93% 0.00 in
21:47 48.5 °F 46.9 °F 30.15 in ENE 1.0 mph 5.0 mph 94% 0.00 in
21:52 48.4 °F 46.8 °F 30.16 in East 1.0 mph 2.0 mph 94% 0.00 in
21:57 48.4 °F 46.8 °F 30.16 in ENE 2.0 mph 2.0 mph 94% 0.00 in
22:02 48.4 °F 46.8 °F 30.15 in East 1.0 mph 3.0 mph 94% 0.00 in
22:07 48.4 °F 46.8 °F 30.15 in East 2.0 mph 3.0 mph 94% 0.00 in
22:12 48.4 °F 46.8 °F 30.15 in ENE 3.0 mph 4.0 mph 94% 0.00 in
22:17 48.3 °F 46.7 °F 30.15 in ESE 2.0 mph 4.0 mph 94% 0.00 in
22:22 48.3 °F 46.7 °F 30.15 in ESE 2.0 mph 2.0 mph 94% 0.00 in
22:27 48.3 °F 46.7 °F 30.15 in Calm   2.0 mph 94% 0.00 in
22:32 48.3 °F 46.9 °F 30.15 in East 2.0 mph 2.0 mph 95% 0.00 in
22:37 48.3 °F 46.9 °F 30.15 in East 1.0 mph 1.0 mph 95% 0.00 in
22:42 48.3 °F 46.9 °F 30.16 in Calm     95% 0.00 in
22:47 48.3 °F 46.9 °F 30.16 in NNE 1.0 mph 1.0 mph 95% 0.00 in
22:52 48.2 °F 46.8 °F 30.15 in NE 1.0 mph 1.0 mph 95% 0.00 in
22:57 48.2 °F 46.8 °F 30.15 in NE 1.0 mph 2.0 mph 95% 0.00 in
23:02 48.2 °F 46.8 °F 30.15 in ENE 2.0 mph 3.0 mph 95% 0.00 in
23:07 48.2 °F 46.8 °F 30.15 in ESE 2.0 mph 2.0 mph 95% 0.00 in
23:12 48.2 °F 46.8 °F 30.14 in East 2.0 mph 3.0 mph 95% 0.00 in
23:17 48.2 °F 46.8 °F 30.14 in SE 1.0 mph 3.0 mph 95% 0.00 in
23:22 48.1 °F 47.0 °F 30.15 in Calm   2.0 mph 96% 0.00 in
23:27 48.1 °F 47.0 °F 30.15 in Calm   1.0 mph 96% 0.00 in
23:32 48.1 °F 47.0 °F 30.14 in Calm   1.0 mph 96% 0.00 in
23:37 48.1 °F 47.0 °F 30.15 in Calm     96% 0.00 in
23:42 48.1 °F 47.0 °F 30.14 in Calm   1.0 mph 96% 0.00 in
23:47 48.1 °F 47.0 °F 30.14 in Calm     96% 0.00 in
23:52 48.1 °F 47.0 °F 30.14 in Calm   1.0 mph 96% 0.00 in
23:57 48.1 °F 47.0 °F 30.14 in Calm   1.0 mph 96% 0.00 in
Compliments of Weather Underground